Marham, RAF Marham (EGYM)

NameRAF Marham
CityMarham
CountryUnited Kingdom
ICAOEGYM
IATAKNF
Altitude23 m
CoordinatesGoogle Map
Live Air TrafficLiveATC.net
METAREGYM 180050Z 36001KT CAVOK M01/M03 Q1018 BLU
2019-01-18 00:50:00 Wind: North (360°) 0.51 m/s - Visibility: > 10000 m - Weather: CAVOK - Temperature: -1 °C - Dew point: -3 °C - Humidity: 86.5% - Pressure: 1018 hPa
Statistics

The table below shows the detailed information of all flights to/from Marham, RAF Marham (EGYM).